Time;durP1;ratioP1;P1;durP2;ratioP2;P2;SDS_P1;SDS_P2;PMS_P1;PMS_P2;Temp;Humidity;BMP_temperature;BMP_pressure;BME280_temperature;BME280_humidity;BME280_pressure;Samples;Min_cycle;Max_cycle;Signal;HPM_P1;HPM_P2
2023/03/09 00:01:29;;;;;;;12.10;8.98;;;;;;;0.96;100.00;99473.03;5015620;28;20048;-77
2023/03/09 00:03:58;;;;;;;13.98;9.65;;;;;;;0.96;100.00;99476.53;5022955;28;20049;-76
2023/03/09 00:06:26;;;;;;;15.18;9.60;;;;;;;0.97;100.00;99478.28;5009309;28;20525;-76
2023/03/09 00:08:59;;;;;;;13.02;9.30;;;;;;;0.98;100.00;99476.53;4960912;28;20042;-76
2023/03/09 00:11:26;;;;;;;17.52;10.02;;;;;;;0.96;100.00;99479.13;5021135;28;20124;-76
2023/03/09 00:13:55;;;;;;;13.57;9.80;;;;;;;0.94;100.00;99475.59;5022834;28;20049;-76
2023/03/09 00:16:25;;;;;;;15.18;9.70;;;;;;;0.91;100.00;99478.16;5025722;28;20514;-78
2023/03/09 00:19:00;;;;;;;17.55;11.15;;;;;;;0.92;100.00;99474.69;4968211;28;20434;-77
2023/03/09 00:21:34;;;;;;;13.82;10.00;;;;;;;0.90;100.00;99465.16;4993161;28;20422;-78
2023/03/09 00:24:13;;;;;;;15.10;10.40;;;;;;;0.90;100.00;99463.41;4959929;28;20053;-77
2023/03/09 00:26:43;;;;;;;16.85;10.70;;;;;;;0.90;100.00;99463.41;5020249;28;20514;-78
2023/03/09 00:29:12;;;;;;;16.30;10.80;;;;;;;0.89;100.00;99463.38;4991813;28;20045;-78
2023/03/09 00:31:40;;;;;;;17.70;11.40;;;;;;;0.89;100.00;99463.38;5000409;28;20045;-78
2023/03/09 00:34:08;;;;;;;19.20;12.32;;;;;;;0.88;100.00;99470.31;5017683;28;20049;-78
2023/03/09 00:36:36;;;;;;;17.83;11.95;;;;;;;0.87;100.00;99476.34;5025304;28;20430;-78
2023/03/09 00:39:04;;;;;;;19.75;11.88;;;;;;;0.87;100.00;99481.53;4981725;28;20046;-77
2023/03/09 00:41:35;;;;;;;16.80;11.63;;;;;;;0.87;100.00;99478.03;5022868;28;20072;-77
2023/03/09 00:44:03;;;;;;;20.63;13.35;;;;;;;0.86;100.00;99484.09;5006333;28;20049;-75
2023/03/09 00:46:32;;;;;;;22.40;12.00;;;;;;;0.84;100.00;99478.88;5026671;28;20049;-78
2023/03/09 00:49:03;;;;;;;19.08;11.80;;;;;;;0.82;100.00;99466.72;5005161;28;20042;-77
2023/03/09 00:51:31;;;;;;;19.55;11.98;;;;;;;0.80;100.00;99471.88;5025747;28;20052;-77
2023/03/09 00:53:58;;;;;;;23.23;14.00;;;;;;;0.76;100.00;99467.47;4945720;28;20064;-77
2023/03/09 00:56:27;;;;;;;18.83;12.30;;;;;;;0.73;100.00;99468.28;5017018;28;20501;-78
2023/03/09 00:58:56;;;;;;;18.55;12.20;;;;;;;0.72;100.00;99463.06;5010617;28;20064;-77
2023/03/09 01:01:24;;;;;;;25.25;13.30;;;;;;;0.72;100.00;99468.25;5010332;28;20053;-77
2023/03/09 01:03:52;;;;;;;18.90;11.38;;;;;;;0.69;100.00;99466.47;5027457;28;20041;-78
2023/03/09 01:06:24;;;;;;;13.18;8.60;;;;;;;0.68;100.00;99472.50;5023316;28;20045;-78
2023/03/09 01:08:52;;;;;;;18.00;12.23;;;;;;;0.68;100.00;99479.38;4977515;28;20054;-76
2023/03/09 01:11:21;;;;;;;19.90;10.77;;;;;;;0.64;100.00;99475.84;5004827;28;20046;-76
2023/03/09 01:13:49;;;;;;;18.23;10.30;;;;;;;0.62;100.00;99480.13;5019861;28;20446;-75
2023/03/09 01:16:17;;;;;;;15.38;10.43;;;;;;;0.60;100.00;99475.75;5008445;28;20041;-78
2023/03/09 01:18:45;;;;;;;17.10;10.77;;;;;;;0.58;100.00;99474.00;5019618;28;20045;-76
2023/03/09 01:21:12;;;;;;;14.30;10.70;;;;;;;0.58;100.00;99475.72;5004599;28;20044;-78
2023/03/09 01:23:40;;;;;;;16.92;11.52;;;;;;;0.57;100.00;99476.59;4999428;28;20060;-76
2023/03/09 01:26:08;;;;;;;19.48;11.43;;;;;;;0.56;100.00;99467.03;4964285;28;20107;-76
2023/03/09 01:28:36;;;;;;;18.25;11.85;;;;;;;0.54;100.00;99466.16;5028858;28;20049;-76
2023/03/09 01:31:13;;;;;;;21.02;12.55;;;;;;;0.52;100.00;99471.28;5002042;28;20041;-77
2023/03/09 01:33:42;;;;;;;19.33;11.68;;;;;;;0.50;100.00;99464.34;5021053;28;20060;-76
2023/03/09 01:36:15;;;;;;;23.83;12.93;;;;;;;0.48;100.00;99459.09;5025160;28;20040;-77
2023/03/09 01:38:43;;;;;;;20.90;12.85;;;;;;;0.45;100.00;99456.44;5010856;28;20064;-76
2023/03/09 01:41:12;;;;;;;22.65;12.75;;;;;;;0.41;100.00;99465.00;4994602;28;21078;-77
2023/03/09 01:43:42;;;;;;;20.80;14.00;;;;;;;0.38;100.00;99467.53;5020587;28;20598;-77
2023/03/09 01:46:24;;;;;;;21.58;13.98;;;;;;;0.36;100.00;99470.09;5033615;28;20545;-77
2023/03/09 01:49:14;;;;;;;23.95;14.30;;;;;;;0.34;100.00;99471.78;5017447;28;20064;-77
2023/03/09 01:51:58;;;;;;;21.25;13.23;;;;;;;0.31;100.00;99476.88;5028768;28;20050;-77
2023/03/09 01:54:32;;;;;;;23.98;14.60;;;;;;;0.29;100.00;99468.19;5014639;28;20522;-77
2023/03/09 01:57:21;;;;;;;26.98;14.63;;;;;;;0.25;100.00;99475.88;5011920;28;26798;-77
2023/03/09 01:59:52;;;;;;;23.75;14.43;;;;;;;0.22;100.00;99474.06;5042930;28;20048;-77
2023/03/09 02:02:25;;;;;;;24.55;14.98;;;;;;;0.21;100.00;99477.53;5035228;28;20147;-77
2023/03/09 02:04:59;;;;;;;27.83;15.13;;;;;;;0.18;100.00;99475.72;5011494;28;20053;-77
2023/03/09 02:07:28;;;;;;;24.08;15.10;;;;;;;0.15;100.00;99474.78;5029877;28;20060;-77
2023/03/09 02:10:17;;;;;;;25.42;15.27;;;;;;;0.13;100.00;99471.28;5004986;28;20049;-77
2023/03/09 02:12:52;;;;;;;25.35;16.25;;;;;;;0.11;100.00;99470.38;5013111;28;20037;-77
2023/03/09 02:15:24;;;;;;;27.02;17.02;;;;;;;0.08;100.00;99466.00;5031070;28;20056;-77
2023/03/09 02:17:51;;;;;;;26.23;15.93;;;;;;;0.08;100.00;99465.13;5027297;28;20056;-77
2023/03/09 02:20:32;;;;;;;26.42;16.02;;;;;;;0.06;100.00;99483.22;5014573;28;20061;-77
2023/03/09 02:23:02;;;;;;;18.15;11.70;;;;;;;0.04;100.00;99481.41;5029918;28;20049;-77
2023/03/09 02:25:50;;;;;;;26.27;15.97;;;;;;;0.03;100.00;99482.28;5046623;28;20497;-77
2023/03/09 02:28:18;;;;;;;25.52;15.23;;;;;;;0.03;100.00;99487.44;5062347;28;20063;-77
2023/03/09 02:30:49;;;;;;;25.00;15.80;;;;;;;0.04;100.00;99509.91;4974017;28;20052;-76
2023/03/09 02:33:28;;;;;;;19.20;12.23;;;;;;;0.04;100.00;99504.72;5029299;28;20059;-77
2023/03/09 02:36:00;;;;;;;26.17;15.00;;;;;;;0.01;100.00;99505.53;5027187;28;20048;-77
2023/03/09 02:38:31;;;;;;;20.98;13.85;;;;;;;0.03;100.00;99505.59;5003446;28;20049;-77
2023/03/09 02:41:02;;;;;;;21.10;14.57;;;;;;;0.02;100.00;99509.00;5010812;28;20045;-77
2023/03/09 02:43:37;;;;;;;22.08;14.73;;;;;;;0.02;100.00;99514.19;5013114;28;20525;-77
2023/03/09 02:46:07;;;;;;;21.35;13.68;;;;;;;0.01;100.00;99502.94;4977116;28;20048;-77
2023/03/09 02:48:38;;;;;;;27.00;15.60;;;;;;;0.02;100.00;99514.19;5013256;28;20057;-76
2023/03/09 02:51:07;;;;;;;24.52;15.63;;;;;;;0.03;100.00;99523.72;5023394;28;20056;-77
2023/03/09 02:53:36;;;;;;;30.73;13.90;;;;;;;0.02;100.00;99530.63;5019468;28;20056;-77
2023/03/09 02:56:03;;;;;;;25.33;16.33;;;;;;;0.02;100.00;99532.31;5042711;28;20045;-77
2023/03/09 02:58:33;;;;;;;25.75;16.55;;;;;;;0.02;100.00;99528.03;5030262;28;20402;-78
2023/03/09 03:01:01;;;;;;;26.08;15.77;;;;;;;0.03;100.00;99531.47;4967918;28;20052;-77
2023/03/09 03:03:30;;;;;;;23.83;15.93;;;;;;;0.03;100.00;99532.34;5017550;28;20049;-77
2023/03/09 03:05:58;;;;;;;23.67;15.68;;;;;;;0.05;100.00;99532.41;5042959;28;20045;-77
2023/03/09 03:08:25;;;;;;;26.27;16.55;;;;;;;0.06;100.00;99541.91;5032164;28;20049;-77
2023/03/09 03:11:05;;;;;;;32.05;18.88;;;;;;;0.07;100.00;99546.25;5027008;28;20457;-77
2023/03/09 03:13:35;;;;;;;24.17;15.75;;;;;;;0.08;100.00;99553.22;5029302;28;20068;-77
2023/03/09 03:16:04;;;;;;;27.83;15.50;;;;;;;0.09;100.00;99554.94;4966838;28;20057;-77
2023/03/09 03:18:32;;;;;;;27.77;15.70;;;;;;;0.11;100.00;99566.22;5029605;28;20045;-77
2023/03/09 03:21:00;;;;;;;26.75;16.90;;;;;;;0.13;100.00;99561.94;5025939;28;20041;-77
2023/03/09 03:23:27;;;;;;;30.42;17.88;;;;;;;0.14;100.00;99576.66;4997264;28;20064;-77
2023/03/09 03:26:03;;;;;;;27.70;16.95;;;;;;;0.15;100.00;99571.53;5015244;28;20049;-77
2023/03/09 03:28:34;;;;;;;22.67;14.55;;;;;;;0.15;100.00;99575.81;5041898;28;20053;-77
2023/03/09 03:31:06;;;;;;;27.38;16.95;;;;;;;0.15;100.00;99576.72;5026034;28;20052;-77
2023/03/09 03:33:34;;;;;;;27.17;17.65;;;;;;;0.16;100.00;99582.75;4966838;28;20049;-77
2023/03/09 03:36:01;;;;;;;28.30;15.93;;;;;;;0.17;100.00;99575.03;5026554;28;20492;-77
2023/03/09 03:38:30;;;;;;;24.85;16.02;;;;;;;0.19;100.00;99567.28;5013090;28;20083;-77
2023/03/09 03:40:57;;;;;;;23.77;15.88;;;;;;;0.18;100.00;99574.16;5013579;28;20056;-77
2023/03/09 03:43:27;;;;;;;22.73;14.02;;;;;;;0.16;100.00;99573.25;5012217;28;20049;-77
2023/03/09 03:45:55;;;;;;;22.65;14.70;;;;;;;0.17;100.00;99571.53;5009694;28;20076;-77
2023/03/09 03:48:23;;;;;;;20.70;13.20;;;;;;;0.16;100.00;99578.44;4984775;28;20045;-77
2023/03/09 03:50:52;;;;;;;21.70;13.68;;;;;;;0.16;100.00;99577.56;5010975;28;20045;-77
2023/03/09 03:53:21;;;;;;;19.52;12.65;;;;;;;0.15;100.00;99588.75;5013789;28;20049;-77
2023/03/09 03:55:52;;;;;;;20.13;12.45;;;;;;;0.16;100.00;99588.81;5004273;28;20406;-77
2023/03/09 03:58:22;;;;;;;17.45;11.63;;;;;;;0.18;100.00;99600.06;5014327;28;20053;-77
2023/03/09 04:00:49;;;;;;;19.25;12.57;;;;;;;0.17;100.00;99598.34;5006573;28;20041;-77
2023/03/09 04:03:20;;;;;;;22.15;13.55;;;;;;;0.19;100.00;99598.38;4983415;28;20049;-77
2023/03/09 04:05:48;;;;;;;21.33;14.23;;;;;;;0.17;100.00;99598.34;4994415;28;20053;-77
2023/03/09 04:08:17;;;;;;;22.98;13.57;;;;;;;0.18;100.00;99594.91;4976577;28;20458;-77
2023/03/09 04:10:46;;;;;;;21.00;13.48;;;;;;;0.17;100.00;99593.16;4980877;28;20414;-77
2023/03/09 04:13:16;;;;;;;;;;;;;;;0.18;100.00;99581.94;5008817;28;20438;-77
2023/03/09 04:15:45;;;;;;;22.00;13.55;;;;;;;0.16;100.00;99575.84;5023874;28;19928;-77
2023/03/09 04:18:14;;;;;;;21.05;12.60;;;;;;;0.16;100.00;99590.53;5007419;28;20053;-77
2023/03/09 04:20:43;;;;;;;19.95;12.98;;;;;;;0.14;100.00;99597.38;4978717;28;20041;-77
2023/03/09 04:23:13;;;;;;;24.60;13.27;;;;;;;0.13;100.00;99596.53;5024097;28;20189;-77
2023/03/09 04:25:57;;;;;;;24.05;13.25;;;;;;;0.13;100.00;99593.03;4996939;28;20060;-76
2023/03/09 04:28:30;;;;;;;19.27;13.15;;;;;;;0.13;100.00;99588.75;5023086;28;20057;-77
2023/03/09 04:30:58;;;;;;;20.52;12.63;;;;;;;0.15;100.00;99591.34;5021316;28;20684;-77
2023/03/09 04:33:27;;;;;;;20.50;14.48;;;;;;;0.16;100.00;99593.13;5026545;28;20053;-77
2023/03/09 04:35:55;;;;;;;18.30;12.63;;;;;;;0.14;100.00;99602.56;4929686;28;20057;-76
2023/03/09 04:38:29;;;;;;;22.33;12.40;;;;;;;0.13;100.00;99614.66;5023470;28;20053;-77
2023/03/09 04:40:57;;;;;;;20.15;13.75;;;;;;;0.12;100.00;99618.06;4993715;28;20821;-77
2023/03/09 04:43:25;;;;;;;19.95;13.30;;;;;;;0.10;100.00;99609.38;4998437;28;20054;-77
2023/03/09 04:45:53;;;;;;;19.90;13.25;;;;;;;0.08;100.00;99608.47;5037389;28;20509;-77
2023/03/09 04:48:22;;;;;;;19.88;12.65;;;;;;;0.05;100.00;99612.69;5018084;28;20053;-77
2023/03/09 04:50:49;;;;;;;21.15;13.95;;;;;;;0.03;100.00;99611.78;4961236;28;20068;-77
2023/03/09 04:53:17;;;;;;;23.20;14.15;;;;;;;-0.01;100.00;99610.81;5007958;28;20521;-77
2023/03/09 04:55:46;;;;;;;20.85;13.45;;;;;;;-0.03;100.00;99609.91;4996091;28;20525;-77
2023/03/09 04:58:14;;;;;;;21.38;13.82;;;;;;;-0.04;100.00;99614.22;5000707;28;20359;-77
2023/03/09 05:00:43;;;;;;;19.98;12.75;;;;;;;-0.05;100.00;99625.41;5002128;28;20049;-77
2023/03/09 05:03:13;;;;;;;19.30;12.60;;;;;;;-0.05;100.00;99645.25;4996340;28;20057;-76
2023/03/09 05:05:46;;;;;;;19.65;12.48;;;;;;;-0.07;100.00;99652.97;4992150;28;20049;-77
2023/03/09 05:08:14;;;;;;;19.73;13.60;;;;;;;-0.05;100.00;99653.88;4978475;28;20803;-78
2023/03/09 05:10:41;;;;;;;22.80;13.60;;;;;;;-0.06;100.00;99652.16;5003557;28;20427;-78
2023/03/09 05:13:09;;;;;;;18.92;12.85;;;;;;;-0.06;100.00;99649.56;4995546;28;20041;-76
2023/03/09 05:15:40;;;;;;;19.65;13.40;;;;;;;-0.05;100.00;99655.63;5005836;28;20518;-78
2023/03/09 05:18:09;;;;;;;24.27;13.77;;;;;;;-0.07;100.00;99650.38;5003551;28;20045;-76
2023/03/09 05:20:39;;;;;;;21.23;13.65;;;;;;;-0.06;100.00;99646.97;5000860;28;20057;-76
2023/03/09 05:23:07;;;;;;;20.13;13.95;;;;;;;-0.05;100.00;99650.44;4992086;28;20414;-77
2023/03/09 05:25:35;;;;;;;20.80;12.75;;;;;;;-0.04;100.00;99658.25;4995327;28;20076;-76
2023/03/09 05:28:06;;;;;;;23.45;14.63;;;;;;;-0.03;100.00;99667.75;4962863;28;20510;-77
2023/03/09 05:30:35;;;;;;;20.77;13.80;;;;;;;-0.02;100.00;99671.22;5004919;28;20045;-77
2023/03/09 05:33:06;;;;;;;20.88;12.68;;;;;;;-0.03;100.00;99657.41;4980589;28;20053;-77
2023/03/09 05:35:37;;;;;;;20.30;13.05;;;;;;;-0.05;100.00;99656.47;5005600;28;20058;-77
2023/03/09 05:38:07;;;;;;;21.33;13.75;;;;;;;-0.04;100.00;99657.34;4945924;28;20053;-77
2023/03/09 05:40:35;;;;;;;17.60;12.63;;;;;;;-0.04;100.00;99673.78;5005286;28;20402;-77
2023/03/09 05:43:07;;;;;;;19.48;12.73;;;;;;;-0.04;100.00;99668.59;4991223;28;23454;-77
2023/03/09 05:45:36;;;;;;;18.60;12.85;;;;;;;-0.02;100.00;99681.56;5005110;28;20062;-77
2023/03/09 05:48:04;;;;;;;19.05;12.48;;;;;;;-0.03;100.00;99680.69;5019028;28;20057;-77
2023/03/09 05:50:32;;;;;;;23.60;13.80;;;;;;;-0.03;100.00;99685.88;5020336;28;20068;-77
2023/03/09 05:53:00;;;;;;;19.05;12.93;;;;;;;-0.03;100.00;99685.88;4960775;28;20053;-77
2023/03/09 05:55:28;;;;;;;22.25;13.20;;;;;;;-0.02;100.00;99687.66;5014739;28;20057;-77
2023/03/09 05:57:56;;;;;;;23.27;14.02;;;;;;;-0.01;100.00;99699.75;5001609;28;21140;-77
2023/03/09 06:00:24;;;;;;;18.42;12.23;;;;;;;-0.01;100.00;99702.34;4985448;28;20061;-77
2023/03/09 06:02:57;;;;;;;21.05;12.82;;;;;;;0.02;100.00;99709.34;4995928;28;20041;-77
2023/03/09 06:05:33;;;;;;;18.38;12.65;;;;;;;0.02;100.00;99717.09;4987572;28;20064;-76
2023/03/09 06:08:00;;;;;;;18.10;12.30;;;;;;;0.04;100.00;99722.31;4973598;28;20053;-76
2023/03/09 06:10:29;;;;;;;18.58;12.70;;;;;;;0.03;100.00;99710.22;4988319;28;20046;-76
2023/03/09 06:12:57;;;;;;;17.33;12.10;;;;;;;0.03;100.00;99702.44;5001247;28;20056;-77
2023/03/09 06:15:26;;;;;;;22.45;12.68;;;;;;;0.04;100.00;99707.66;4978258;28;20678;-77
2023/03/09 06:17:53;;;;;;;24.27;14.05;;;;;;;0.04;100.00;99707.66;5001748;28;20038;-77
2023/03/09 06:20:26;;;;;;;22.25;13.88;;;;;;;0.05;100.00;99706.81;4998515;28;20072;-77
2023/03/09 06:22:58;;;;;;;24.33;14.32;;;;;;;0.05;100.00;99704.22;5001449;28;20053;-77
2023/03/09 06:25:27;;;;;;;27.48;13.90;;;;;;;0.06;100.00;99723.22;4932844;28;20049;-77
2023/03/09 06:27:55;;;;;;;25.65;13.02;;;;;;;0.05;100.00;99708.53;4967620;28;20049;-77
2023/03/09 06:30:26;;;;;;;18.60;13.63;;;;;;;0.06;100.00;99715.44;4962558;28;20074;-76
2023/03/09 06:32:56;;;;;;;21.52;13.48;;;;;;;0.06;100.00;99723.22;5000814;28;20045;-77
2023/03/09 06:35:26;;;;;;;23.58;14.98;;;;;;;0.08;100.00;99722.44;5019951;28;20045;-77
2023/03/09 06:37:54;;;;;;;21.27;14.15;;;;;;;0.09;100.00;99720.72;4974900;28;20045;-77
2023/03/09 06:40:22;;;;;;;22.42;13.45;;;;;;;0.10;100.00;99728.53;4940365;28;20430;-77
2023/03/09 06:42:51;;;;;;;21.38;13.30;;;;;;;0.12;100.00;99731.19;4975797;28;20104;-77
2023/03/09 06:45:20;;;;;;;19.20;13.40;;;;;;;0.13;100.00;99738.09;4990962;28;20061;-76
2023/03/09 06:47:48;;;;;;;21.75;13.82;;;;;;;0.14;100.00;99739.88;5012045;28;20056;-77
2023/03/09 06:50:16;;;;;;;20.42;14.15;;;;;;;0.14;100.00;99740.75;5031759;28;20055;-77
2023/03/09 06:52:45;;;;;;;20.05;13.00;;;;;;;0.16;100.00;99749.44;4995871;28;20061;-76
2023/03/09 06:55:16;;;;;;;19.23;13.23;;;;;;;0.18;100.00;99749.47;5013016;28;20041;-76
2023/03/09 06:57:56;;;;;;;22.60;13.68;;;;;;;0.24;100.00;99751.34;4999775;28;20080;-78
2023/03/09 07:00:24;;;;;;;21.95;14.02;;;;;;;0.26;100.00;99747.97;4999659;28;20060;-75
2023/03/09 07:02:56;;;;;;;19.50;13.63;;;;;;;0.31;100.00;99748.09;5029001;28;20059;-78
2023/03/09 07:05:24;;;;;;;19.52;12.88;;;;;;;0.35;100.00;99744.75;5001452;28;20432;-75
2023/03/09 07:07:51;;;;;;;19.38;13.55;;;;;;;0.42;100.00;99756.13;5041732;28;20049;-76
2023/03/09 07:10:18;;;;;;;20.27;13.70;;;;;;;0.43;100.00;99750.13;5029673;28;20509;-76
2023/03/09 07:12:51;;;;;;;22.15;13.98;;;;;;;0.48;100.00;99754.59;4966534;28;20055;-75
2023/03/09 07:15:18;;;;;;;20.20;12.98;;;;;;;0.56;100.00;99762.56;5043243;28;20056;-75
2023/03/09 07:17:46;;;;;;;19.55;13.70;;;;;;;0.60;100.00;99761.81;5010276;28;20041;-75
2023/03/09 07:20:13;;;;;;;18.05;12.75;;;;;;;0.64;100.00;99773.16;5061463;28;20048;-77
2023/03/09 07:22:41;;;;;;;15.98;12.32;;;;;;;0.66;100.00;99777.56;5025223;28;20064;-77
2023/03/09 07:25:09;;;;;;;19.65;13.20;;;;;;;0.68;100.00;99780.16;5013430;28;20140;-77
2023/03/09 07:27:36;;;;;;;18.88;12.75;;;;;;;0.69;100.00;99785.38;4987442;28;20041;-76
2023/03/09 07:30:04;;;;;;;19.10;12.65;;;;;;;0.74;100.00;99794.19;5005070;28;20056;-76
2023/03/09 07:32:32;;;;;;;19.33;12.48;;;;;;;0.79;100.00;99794.28;5011517;28;20045;-76
2023/03/09 07:34:59;;;;;;;17.02;12.30;;;;;;;0.87;100.00;99791.88;5047454;28;20045;-77
2023/03/09 07:37:26;;;;;;;18.83;14.60;;;;;;;0.96;100.00;99805.97;5029449;28;20048;-76
2023/03/09 07:39:53;;;;;;;19.65;13.40;;;;;;;1.03;100.00;99799.22;5051526;28;20040;-76
2023/03/09 07:42:21;;;;;;;16.63;12.90;;;;;;;1.16;100.00;99809.06;5030842;28;20053;-76
2023/03/09 07:45:16;;;;;;;18.13;12.98;;;;;;;1.26;100.00;99807.56;4971310;28;20056;-76
2023/03/09 07:47:43;;;;;;;18.02;12.57;;;;;;;1.33;100.00;99806.00;5030438;28;20045;-77
2023/03/09 07:50:11;;;;;;;17.63;12.73;;;;;;;1.43;100.00;99807.94;4981067;28;20068;-77
2023/03/09 07:52:38;;;;;;;15.90;12.32;;;;;;;1.49;100.00;99812.41;5009770;28;20513;-77
2023/03/09 07:55:09;;;;;;;15.93;12.13;;;;;;;1.61;100.00;99810.13;5026826;28;20041;-77
2023/03/09 07:57:37;;;;;;;;;;;;;;;1.81;100.00;99818.31;5038080;28;20052;-77
2023/03/09 08:00:11;;;;;;;15.85;11.25;;;;;;;2.00;100.00;99826.53;4987690;28;19921;-77
2023/03/09 08:02:42;;;;;;;15.07;10.60;;;;;;;2.23;100.00;99824.41;5010894;28;20064;-77
2023/03/09 08:05:10;;;;;;;14.52;12.05;;;;;;;2.44;100.00;99822.25;5003953;28;20054;-77
2023/03/09 08:07:38;;;;;;;14.85;12.00;;;;;;;2.67;100.00;99832.22;5040963;28;20087;-77
2023/03/09 08:10:07;;;;;;;16.38;11.82;;;;;;;2.82;100.00;99839.44;5008891;28;20051;-77
2023/03/09 08:12:35;;;;;;;16.73;11.95;;;;;;;2.95;100.00;99841.41;5001417;28;20604;-77
2023/03/09 08:15:03;;;;;;;14.73;11.00;;;;;;;3.01;100.00;99843.25;4975698;28;20491;-77
2023/03/09 08:17:34;;;;;;;15.00;11.55;;;;;;;3.08;100.00;99842.47;5011572;28;20154;-77
2023/03/09 08:20:08;;;;;;;12.95;10.27;;;;;;;3.06;100.00;99855.50;5020336;28;20048;-77
2023/03/09 08:22:38;;;;;;;14.70;11.60;;;;;;;2.95;100.00;99858.72;5008576;28;20048;-77
2023/03/09 08:25:08;;;;;;;15.40;10.88;;;;;;;2.81;100.00;99866.28;4993285;28;20057;-77
2023/03/09 08:27:46;;;;;;;12.23;10.07;;;;;;;2.68;100.00;99866.03;5009670;28;20056;-77
2023/03/09 08:30:15;;;;;;;14.18;10.98;;;;;;;2.59;100.00;99873.69;4984124;28;20048;-77
2023/03/09 08:32:46;;;;;;;14.93;9.88;;;;;;;2.48;100.00;99876.06;5033208;28;20048;-77
2023/03/09 08:35:15;;;;;;;15.18;10.38;;;;;;;2.39;100.00;99883.69;5029064;28;20079;-77
2023/03/09 08:37:42;;;;;;;16.00;11.63;;;;;;;2.46;100.00;99892.50;5025369;28;20041;-77
2023/03/09 08:40:13;;;;;;;16.83;10.93;;;;;;;2.63;100.00;99888.50;5009932;28;20406;-77
2023/03/09 08:42:41;;;;;;;12.68;10.27;;;;;;;2.85;100.00;99894.13;5022588;28;20048;-77
2023/03/09 08:45:09;;;;;;;14.07;10.52;;;;;;;3.11;100.00;99894.59;4970925;28;20057;-77
2023/03/09 08:47:37;;;;;;;12.90;10.43;;;;;;;3.36;100.00;99900.25;5012039;28;20049;-77
2023/03/09 08:50:09;;;;;;;14.30;10.23;;;;;;;3.56;100.00;99903.19;5019161;28;20048;-77
2023/03/09 08:52:39;;;;;;;;;;;;;;;3.63;100.00;99905.94;5020395;28;20053;-77
2023/03/09 08:55:08;;;;;;;13.20;9.90;;;;;;;3.68;100.00;99903.38;5026163;28;19928;-77
2023/03/09 08:57:36;;;;;;;11.23;9.15;;;;;;;3.74;100.00;99902.59;5007509;28;20059;-77
2023/03/09 09:00:06;;;;;;;15.00;10.18;;;;;;;3.80;100.00;99905.28;5034197;28;20037;-77
2023/03/09 09:02:34;;;;;;;13.35;9.50;;;;;;;3.76;100.00;99901.75;5009731;28;20478;-77
2023/03/09 09:05:02;;;;;;;11.15;8.60;;;;;;;3.78;100.00;99910.50;5017920;28;20529;-77
2023/03/09 09:07:30;;;;;;;10.65;8.77;;;;;;;3.73;100.00;99912.16;4982484;28;20075;-77
2023/03/09 09:09:59;;;;;;;10.77;8.80;;;;;;;3.78;100.00;99907.00;5002363;28;20048;-77
2023/03/09 09:12:27;;;;;;;10.70;8.13;;;;;;;3.83;100.00;99908.81;5038036;28;20394;-77
2023/03/09 09:14:55;;;;;;;10.65;8.32;;;;;;;3.71;100.00;99900.84;5034732;28;20052;-77
2023/03/09 09:17:22;;;;;;;9.90;7.97;;;;;;;3.66;100.00;99908.56;4969256;28;20044;-77
2023/03/09 09:19:51;;;;;;;11.68;8.05;;;;;;;3.55;100.00;99894.47;5036190;28;20044;-77
2023/03/09 09:22:18;;;;;;;7.95;6.97;;;;;;;3.49;100.00;99907.41;5012237;28;20052;-76
2023/03/09 09:24:46;;;;;;;9.40;6.65;;;;;;;3.42;100.00;99916.88;5022776;28;20083;-77
2023/03/09 09:27:14;;;;;;;6.43;5.72;;;;;;;3.47;100.00;99923.00;5010111;28;20053;-77
2023/03/09 09:29:42;;;;;;;9.23;6.82;;;;;;;3.54;100.00;99923.13;5015299;28;20080;-77
2023/03/09 09:32:09;;;;;;;7.03;6.00;;;;;;;3.39;100.00;99927.22;4997375;28;20064;-77
2023/03/09 09:34:37;;;;;;;8.50;7.05;;;;;;;3.25;100.00;99929.59;5047115;28;20049;-77
2023/03/09 09:37:05;;;;;;;6.95;5.43;;;;;;;3.15;100.00;99927.66;5019030;28;20050;-77
2023/03/09 09:39:33;;;;;;;6.75;6.15;;;;;;;3.13;100.00;99927.63;5039479;28;20776;-77
2023/03/09 09:42:05;;;;;;;6.88;5.72;;;;;;;3.25;100.00;99934.81;5044111;28;20052;-76
2023/03/09 09:44:40;;;;;;;9.35;5.85;;;;;;;3.28;100.00;99936.56;5043168;28;20553;-77
2023/03/09 09:47:15;;;;;;;6.78;5.70;;;;;;;3.27;100.00;99932.19;4999399;28;20056;-77
2023/03/09 09:49:46;;;;;;;7.43;5.97;;;;;;;3.33;100.00;99937.53;5031632;28;20045;-77
2023/03/09 09:52:21;;;;;;;;;;;;;;;3.36;100.00;99937.56;5028408;28;20055;-77
2023/03/09 09:54:55;;;;;;;7.70;6.10;;;;;;;3.42;100.00;99931.59;5040569;28;19920;-77
2023/03/09 09:57:36;;;;;;;6.80;5.82;;;;;;;3.49;100.00;99923.91;5029580;28;20053;-77
2023/03/09 10:00:10;;;;;;;7.85;6.60;;;;;;;3.53;100.00;99932.66;5006845;28;20046;-77
2023/03/09 10:03:10;;;;;;;7.60;5.90;;;;;;;3.55;100.00;99928.34;4993760;28;20406;-77
2023/03/09 10:05:50;;;;;;;6.18;5.57;;;;;;;3.60;100.00;99941.47;5027163;28;20057;-77
2023/03/09 10:08:26;;;;;;;7.07;5.40;;;;;;;3.49;100.00;99926.50;5000936;28;20060;-77
2023/03/09 10:11:07;;;;;;;8.32;7.05;;;;;;;3.47;100.00;99941.25;5050720;28;20048;-78
2023/03/09 10:13:48;;;;;;;9.38;6.50;;;;;;;3.50;100.00;99951.72;5039657;28;20045;-78
2023/03/09 10:16:25;;;;;;;12.18;5.57;;;;;;;3.60;100.00;99944.94;5009909;28;20059;-80
2023/03/09 10:19:00;;;;;;;6.43;5.68;;;;;;;3.71;100.00;99943.41;5027798;28;20046;-79
2023/03/09 10:21:48;;;;;;;8.98;6.28;;;;;;;3.85;100.00;99947.94;5028212;28;20442;-78
2023/03/09 10:24:22;;;;;;;7.28;6.45;;;;;;;3.86;100.00;99945.38;5026775;28;20048;-78
2023/03/09 10:27:38;;;;;;;8.15;6.90;;;;;;;3.89;100.00;99935.00;5013157;28;20052;-78
2023/03/09 10:30:27;;;;;;;7.53;6.32;;;;;;;3.93;100.00;99946.34;4978716;28;20045;-78
2023/03/09 10:33:00;;;;;;;7.55;5.80;;;;;;;3.96;100.00;99942.91;5004755;28;21652;-78
2023/03/09 10:35:36;;;;;;;8.55;6.88;;;;;;;4.00;100.00;99947.31;5039903;28;20052;-78
2023/03/09 10:38:03;;;;;;;7.72;6.38;;;;;;;4.06;100.00;99950.91;5020323;28;20056;-78
2023/03/09 10:40:52;;;;;;;5.55;5.05;;;;;;;4.00;100.00;99948.19;5058617;28;20048;-78
2023/03/09 10:43:35;;;;;;;6.65;5.43;;;;;;;4.03;100.00;99952.59;5039030;28;20057;-78
2023/03/09 10:46:21;;;;;;;8.45;5.65;;;;;;;4.08;100.00;99953.50;5052031;28;20060;-78
2023/03/09 10:49:08;;;;;;;6.47;5.60;;;;;;;3.98;100.00;99955.09;5030037;28;20085;-78
2023/03/09 10:51:40;;;;;;;7.82;6.03;;;;;;;3.98;100.00;99962.06;5041413;28;20049;-78
2023/03/09 10:54:38;;;;;;;8.80;6.60;;;;;;;3.96;100.00;99956.81;5030968;28;20047;-78
2023/03/09 10:57:22;;;;;;;8.20;6.00;;;;;;;4.00;100.00;99956.00;5039225;28;20060;-80
2023/03/09 11:00:11;;;;;;;6.95;6.25;;;;;;;4.02;100.00;99954.28;5036195;28;20517;-79
2023/03/09 11:02:39;;;;;;;8.32;6.13;;;;;;;3.98;100.00;99955.09;5016306;28;22998;-78
2023/03/09 11:05:18;;;;;;;6.32;5.72;;;;;;;3.99;100.00;99953.38;5008929;28;20056;-78
2023/03/09 11:07:55;;;;;;;8.27;5.93;;;;;;;3.99;100.00;99935.13;5012947;28;20052;-79
2023/03/09 11:10:25;;;;;;;8.43;6.53;;;;;;;4.02;100.00;99956.03;5024419;28;20052;-79
2023/03/09 11:12:56;;;;;;;6.70;6.00;;;;;;;3.99;100.00;99966.41;5053614;28;20048;-79
2023/03/09 11:15:34;;;;;;;6.65;5.95;;;;;;;3.93;100.00;99961.97;5034983;28;20091;-79
2023/03/09 11:18:03;;;;;;;6.28;5.68;;;;;;;3.85;100.00;99953.16;5041137;28;20057;-80
2023/03/09 11:20:38;;;;;;;8.13;6.78;;;;;;;3.81;100.00;99967.88;5043255;28;20044;-79
2023/03/09 11:23:28;;;;;;;7.57;6.25;;;;;;;3.77;100.00;99963.47;5023081;28;20056;-80
2023/03/09 11:26:33;;;;;;;6.10;4.97;;;;;;;3.73;100.00;99974.69;5045093;28;20041;-78
2023/03/09 11:29:18;;;;;;;7.80;5.63;;;;;;;3.65;100.00;99965.88;5034496;28;20060;-80
2023/03/09 11:31:46;;;;;;;6.93;5.72;;;;;;;3.64;100.00;99951.94;5037380;28;20052;-78
2023/03/09 11:34:26;;;;;;;6.57;5.60;;;;;;;3.66;100.00;99967.63;5020343;28;20051;-77
2023/03/09 11:36:59;;;;;;;6.57;5.87;;;;;;;3.62;100.00;99964.09;5038917;28;20513;-80
2023/03/09 11:39:33;;;;;;;7.30;4.65;;;;;;;3.55;100.00;99958.75;5015906;28;20913;-79
2023/03/09 11:42:46;;;;;;;6.55;5.20;;;;;;;3.66;100.00;99967.63;5054040;28;20045;-79